createdAt,value
2019-03-15T00:00:29.679Z,7.08
2019-03-15T00:01:05.589Z,7.11
2019-03-15T00:01:42.698Z,7.11
2019-03-15T00:02:21.542Z,7.12
2019-03-15T00:02:57.284Z,7.25
2019-03-15T00:03:32.810Z,7.20
2019-03-15T00:04:08.330Z,7.20
2019-03-15T00:04:44.094Z,7.18
2019-03-15T00:05:19.874Z,7.25
2019-03-15T00:05:55.689Z,7.25
2019-03-15T00:06:31.467Z,7.17
2019-03-15T00:07:07.198Z,7.17
2019-03-15T00:07:42.620Z,7.18
2019-03-15T00:08:18.917Z,7.21
2019-03-15T00:08:54.356Z,7.32
2019-03-15T00:09:30.346Z,7.32
2019-03-15T00:10:06.766Z,7.38
2019-03-15T00:10:42.549Z,7.31
2019-03-15T00:11:18.274Z,7.29
2019-03-15T00:11:54.018Z,7.47
2019-03-15T00:12:29.439Z,7.49
2019-03-15T00:13:04.883Z,7.43
2019-03-15T00:13:40.327Z,7.37
2019-03-15T00:14:16.101Z,7.35
2019-03-15T00:14:51.537Z,7.35
2019-03-15T00:15:26.944Z,7.45
2019-03-15T00:16:02.664Z,7.41
2019-03-15T00:16:38.088Z,7.41
2019-03-15T00:17:13.868Z,7.40
2019-03-15T00:17:49.285Z,7.37
2019-03-15T00:18:24.726Z,7.53
2019-03-15T00:19:00.141Z,7.45
2019-03-15T00:19:36.334Z,7.43
2019-03-15T00:20:11.771Z,7.39
2019-03-15T00:20:47.196Z,7.43
2019-03-15T00:21:22.717Z,7.43
2019-03-15T00:21:58.461Z,7.42
2019-03-15T00:22:34.214Z,7.52
2019-03-15T00:23:10.440Z,7.41
2019-03-15T00:23:45.957Z,7.41
2019-03-15T00:24:21.528Z,7.46
2019-03-15T00:24:56.944Z,7.44
2019-03-15T00:25:32.365Z,7.37
2019-03-15T00:26:08.112Z,7.37
2019-03-15T00:26:43.524Z,7.37
2019-03-15T00:27:18.939Z,7.38
2019-03-15T00:27:54.756Z,7.38
2019-03-15T00:28:30.198Z,7.33
2019-03-15T00:29:06.244Z,7.33
2019-03-15T00:29:41.948Z,7.35
2019-03-15T00:30:17.678Z,7.34
2019-03-15T00:30:53.468Z,7.34
2019-03-15T00:31:29.324Z,7.26
2019-03-15T00:32:04.927Z,7.28
2019-03-15T00:32:40.650Z,7.28
2019-03-15T00:33:16.073Z,7.25
2019-03-15T00:33:51.627Z,7.28
2019-03-15T00:34:27.103Z,7.25
2019-03-15T00:35:02.533Z,7.21
2019-03-15T00:35:37.990Z,7.14
2019-03-15T00:36:13.525Z,7.24
2019-03-15T00:36:48.923Z,7.14
2019-03-15T00:37:24.351Z,7.14
2019-03-15T00:37:59.769Z,7.12
2019-03-15T00:38:35.232Z,7.19
2019-03-15T00:39:10.655Z,7.15
2019-03-15T00:39:46.080Z,7.15
2019-03-15T00:40:21.487Z,7.17
2019-03-15T00:40:57.224Z,7.29
2019-03-15T00:41:32.644Z,7.23
2019-03-15T00:42:08.463Z,7.23
2019-03-15T00:42:44.048Z,7.23
2019-03-15T00:43:19.783Z,7.17
2019-03-15T00:43:55.233Z,7.08
2019-03-15T00:44:30.981Z,7.20
2019-03-15T00:45:08.329Z,7.20
2019-03-15T00:45:44.010Z,7.11
2019-03-15T00:46:19.659Z,7.10
2019-03-15T00:46:55.481Z,7.07
2019-03-15T00:47:31.301Z,7.07
2019-03-15T00:48:07.093Z,7.12
2019-03-15T00:48:42.842Z,7.05
2019-03-15T00:49:18.252Z,7.06
2019-03-15T00:49:53.670Z,7.04
2019-03-15T00:50:29.200Z,7.04
2019-03-15T00:51:04.634Z,7.04
2019-03-15T00:51:40.387Z,6.99
2019-03-15T00:52:15.818Z,6.95
2019-03-15T00:52:51.229Z,6.86
2019-03-15T00:53:26.655Z,6.80
2019-03-15T00:54:02.449Z,6.80
2019-03-15T00:54:37.855Z,6.79
2019-03-15T00:55:13.306Z,6.85
2019-03-15T00:55:48.715Z,6.74
2019-03-15T00:56:24.124Z,6.74
2019-03-15T00:56:59.895Z,6.76
2019-03-15T00:57:35.828Z,6.51
2019-03-15T00:58:11.237Z,6.51
2019-03-15T00:58:47.001Z,6.55
2019-03-15T00:59:22.740Z,6.54
2019-03-15T00:59:58.157Z,6.41
2019-03-15T01:00:33.596Z,6.41
2019-03-15T01:01:09.051Z,6.35
2019-03-15T01:01:45.561Z,6.37
2019-03-15T01:02:21.450Z,6.34
2019-03-15T01:02:57.418Z,6.34
2019-03-15T01:03:32.859Z,6.37
2019-03-15T01:04:09.630Z,6.26
2019-03-15T01:04:45.611Z,6.21
2019-03-15T01:05:21.028Z,6.16
2019-03-15T01:05:56.444Z,6.11
2019-03-15T01:06:31.881Z,6.11
2019-03-15T01:07:07.608Z,6.11
2019-03-15T01:07:43.374Z,6.06
2019-03-15T01:08:18.798Z,6.02
2019-03-15T01:08:54.284Z,6.15
2019-03-15T01:09:30.324Z,6.09
2019-03-15T01:10:06.126Z,6.12
2019-03-15T01:10:41.814Z,6.10
2019-03-15T01:11:17.227Z,6.11
2019-03-15T01:11:52.632Z,6.11
2019-03-15T01:12:28.321Z,6.08
2019-03-15T01:13:03.740Z,6.13
2019-03-15T01:13:39.154Z,6.10
2019-03-15T01:14:14.924Z,6.12
2019-03-15T01:14:50.366Z,6.15
2019-03-15T01:15:25.789Z,6.18
2019-03-15T01:16:01.195Z,6.14
2019-03-15T01:16:36.975Z,6.15
2019-03-15T01:17:12.384Z,6.28
2019-03-15T01:17:48.154Z,6.32
2019-03-15T01:18:23.579Z,6.28
2019-03-15T01:18:59.100Z,6.27
2019-03-15T01:19:34.543Z,6.29
2019-03-15T01:20:09.985Z,6.29
2019-03-15T01:20:45.379Z,6.33
2019-03-15T01:21:21.052Z,6.32
2019-03-15T01:21:56.898Z,6.35
2019-03-15T01:22:32.638Z,6.35
2019-03-15T01:23:08.505Z,6.43
2019-03-15T01:23:44.364Z,6.48
2019-03-15T01:24:20.578Z,6.39
2019-03-15T01:24:56.322Z,6.38
2019-03-15T01:25:31.737Z,6.40
2019-03-15T01:26:07.404Z,6.42
2019-03-15T01:26:43.132Z,6.39
2019-03-15T01:27:18.869Z,6.43
2019-03-15T01:27:54.632Z,6.38
2019-03-15T01:28:30.457Z,6.37
2019-03-15T01:29:05.910Z,6.37
2019-03-15T01:29:41.318Z,6.42
2019-03-15T01:30:20.430Z,6.42
2019-03-15T01:30:55.967Z,6.44
2019-03-15T01:31:31.392Z,6.40
2019-03-15T01:32:06.838Z,6.44
2019-03-15T01:32:42.275Z,6.49
2019-03-15T01:33:17.695Z,6.43
2019-03-15T01:33:53.453Z,6.43
2019-03-15T01:34:29.261Z,6.48
2019-03-15T01:35:05.140Z,6.49
2019-03-15T01:35:40.822Z,6.45
2019-03-15T01:36:16.226Z,6.62
2019-03-15T01:36:51.637Z,6.58
2019-03-15T01:37:27.742Z,6.54
2019-03-15T01:38:03.162Z,6.54
2019-03-15T01:38:38.882Z,6.60
2019-03-15T01:39:14.308Z,6.64
2019-03-15T01:39:49.718Z,6.66
2019-03-15T01:40:25.137Z,6.70
2019-03-15T01:41:00.915Z,6.66
2019-03-15T01:41:36.658Z,6.74
2019-03-15T01:42:12.391Z,6.74
2019-03-15T01:42:48.047Z,6.74
2019-03-15T01:43:23.406Z,6.71
2019-03-15T01:43:58.844Z,6.67
2019-03-15T01:44:34.651Z,6.75
2019-03-15T01:45:10.276Z,6.79
2019-03-15T01:45:46.066Z,6.71
2019-03-15T01:46:21.483Z,6.71
2019-03-15T01:46:57.631Z,6.76
2019-03-15T01:47:33.056Z,6.74
2019-03-15T01:48:08.485Z,6.70
2019-03-15T01:48:43.917Z,6.72
2019-03-15T01:49:19.379Z,6.81
2019-03-15T01:49:54.774Z,6.80
2019-03-15T01:50:30.211Z,6.80
2019-03-15T01:51:05.664Z,6.76
2019-03-15T01:51:41.581Z,6.77
2019-03-15T01:52:17.435Z,6.78
2019-03-15T01:52:52.861Z,6.86
2019-03-15T01:53:28.365Z,6.97
2019-03-15T01:54:03.773Z,6.97
2019-03-15T01:54:39.659Z,6.92
2019-03-15T01:55:15.084Z,6.86
2019-03-15T01:55:50.854Z,6.83
2019-03-15T01:56:27.308Z,6.88
2019-03-15T01:57:03.388Z,6.94
2019-03-15T01:57:38.792Z,6.98
2019-03-15T01:58:14.218Z,6.93
2019-03-15T01:58:50.287Z,6.91
2019-03-15T01:59:26.017Z,6.90
2019-03-15T02:00:01.461Z,6.96
2019-03-15T02:00:37.079Z,6.95
2019-03-15T02:01:12.494Z,7.05
2019-03-15T02:01:48.275Z,7.05
2019-03-15T02:02:24.064Z,7.02
2019-03-15T02:03:02.077Z,6.86
2019-03-15T02:03:36.583Z,6.86
2019-03-15T02:04:12.376Z,6.82
2019-03-15T02:04:47.878Z,6.79
2019-03-15T02:05:23.632Z,6.90
2019-03-15T02:05:59.415Z,6.87
2019-03-15T02:06:34.828Z,6.87
2019-03-15T02:07:10.556Z,6.87
2019-03-15T02:07:45.984Z,6.89
2019-03-15T02:08:21.837Z,6.92
2019-03-15T02:08:57.243Z,6.92
2019-03-15T02:09:33.166Z,6.85
2019-03-15T02:10:09.162Z,6.85
2019-03-15T02:10:44.639Z,6.81
2019-03-15T02:11:20.047Z,6.87
2019-03-15T02:11:55.610Z,7.00
2019-03-15T02:12:31.497Z,6.91
2019-03-15T02:13:06.919Z,6.83
2019-03-15T02:13:42.349Z,6.87
2019-03-15T02:14:18.111Z,6.94
2019-03-15T02:14:53.679Z,6.91
2019-03-15T02:15:29.068Z,6.84
2019-03-15T02:16:04.841Z,6.81
2019-03-15T02:16:40.350Z,6.82
2019-03-15T02:17:16.120Z,6.85
2019-03-15T02:17:52.679Z,6.83
2019-03-15T02:18:28.530Z,6.78
2019-03-15T02:19:03.985Z,6.77
2019-03-15T02:19:39.802Z,6.69
2019-03-15T02:20:16.086Z,6.69
2019-03-15T02:20:51.489Z,6.83
2019-03-15T02:21:27.207Z,6.76
2019-03-15T02:22:02.963Z,6.76
2019-03-15T02:22:38.363Z,6.81
2019-03-15T02:23:13.767Z,6.79
2019-03-15T02:23:49.510Z,6.84
2019-03-15T02:24:24.961Z,6.83
2019-03-15T02:25:00.767Z,6.76
2019-03-15T02:25:36.611Z,6.70
2019-03-15T02:26:12.338Z,6.72
2019-03-15T02:26:48.491Z,6.74
2019-03-15T02:27:23.935Z,6.70
2019-03-15T02:27:59.781Z,6.70
2019-03-15T02:28:35.310Z,6.73
2019-03-15T02:29:10.742Z,6.74
2019-03-15T02:29:46.188Z,6.75
2019-03-15T02:30:21.603Z,6.81
2019-03-15T02:30:57.460Z,6.79
2019-03-15T02:31:33.322Z,6.74
2019-03-15T02:32:09.027Z,6.83
2019-03-15T02:32:44.785Z,6.76
2019-03-15T02:33:20.211Z,6.74
2019-03-15T02:33:55.631Z,6.71
2019-03-15T02:34:31.202Z,6.71
2019-03-15T02:35:06.839Z,6.71
2019-03-15T02:35:42.977Z,6.78
2019-03-15T02:36:18.686Z,6.78
2019-03-15T02:36:54.123Z,6.73
2019-03-15T02:37:30.193Z,6.71
2019-03-15T02:38:05.708Z,6.71
2019-03-15T02:38:41.134Z,6.69
2019-03-15T02:39:16.538Z,6.63
2019-03-15T02:39:52.010Z,6.62
2019-03-15T02:40:27.426Z,6.59
2019-03-15T02:41:02.853Z,6.61
2019-03-15T02:41:38.655Z,6.65
2019-03-15T02:42:14.070Z,6.69
2019-03-15T02:42:49.514Z,6.65
2019-03-15T02:43:25.538Z,6.58
2019-03-15T02:44:01.295Z,6.65
2019-03-15T02:44:39.123Z,6.61
2019-03-15T02:45:15.236Z,6.56
2019-03-15T02:45:50.668Z,6.57
2019-03-15T02:46:26.099Z,6.53
2019-03-15T02:47:01.607Z,6.53
2019-03-15T02:47:37.076Z,6.51
2019-03-15T02:48:13.574Z,6.52
2019-03-15T02:48:49.635Z,6.56
2019-03-15T02:49:25.130Z,6.53
2019-03-15T02:50:01.296Z,6.46
2019-03-15T02:50:37.520Z,6.45
2019-03-15T02:51:12.949Z,6.50
2019-03-15T02:51:49.939Z,6.48
2019-03-15T02:52:26.039Z,6.44
2019-03-15T02:53:01.454Z,6.45
2019-03-15T02:53:37.214Z,6.44
2019-03-15T02:54:12.709Z,6.43
2019-03-15T02:54:48.539Z,6.44
2019-03-15T02:55:23.992Z,6.48
2019-03-15T02:55:59.434Z,6.42
2019-03-15T02:56:34.899Z,6.44
2019-03-15T02:57:10.362Z,6.54
2019-03-15T02:57:45.804Z,6.49
2019-03-15T02:58:21.243Z,6.44
2019-03-15T02:58:57.086Z,6.47
2019-03-15T02:59:32.534Z,6.50
2019-03-15T03:00:08.028Z,6.49
2019-03-15T03:00:43.822Z,6.45
2019-03-15T03:01:19.896Z,6.45
2019-03-15T03:01:55.305Z,6.47
2019-03-15T03:02:30.740Z,6.43
2019-03-15T03:03:06.528Z,6.49
2019-03-15T03:03:42.465Z,6.51
2019-03-15T03:04:17.876Z,6.52
2019-03-15T03:04:53.335Z,6.46
2019-03-15T03:05:28.764Z,6.46
2019-03-15T03:06:05.011Z,6.52
2019-03-15T03:06:40.806Z,6.60
2019-03-15T03:07:16.219Z,6.53
2019-03-15T03:07:52.234Z,6.54
2019-03-15T03:08:27.681Z,6.60
2019-03-15T03:09:03.116Z,6.55
2019-03-15T03:09:38.876Z,6.60
2019-03-15T03:10:15.685Z,6.51
2019-03-15T03:10:51.108Z,6.54
2019-03-15T03:11:26.629Z,6.54
2019-03-15T03:12:02.452Z,6.50
2019-03-15T03:12:38.274Z,6.60
2019-03-15T03:13:13.710Z,6.64
2019-03-15T03:13:49.306Z,6.52
2019-03-15T03:14:24.742Z,6.50
2019-03-15T03:15:00.294Z,6.46
2019-03-15T03:15:35.907Z,6.50
2019-03-15T03:16:11.336Z,6.57
2019-03-15T03:16:46.791Z,6.60
2019-03-15T03:17:22.210Z,6.56
2019-03-15T03:17:58.682Z,6.51
2019-03-15T03:18:34.660Z,6.50
2019-03-15T03:19:10.337Z,6.49
2019-03-15T03:19:46.264Z,6.49
2019-03-15T03:20:22.098Z,6.50
2019-03-15T03:20:57.513Z,6.52
2019-03-15T03:21:32.981Z,6.53
2019-03-15T03:22:09.252Z,6.60
2019-03-15T03:22:45.192Z,6.60
2019-03-15T03:23:20.603Z,6.54
2019-03-15T03:23:57.325Z,6.62
2019-03-15T03:24:33.201Z,6.56
2019-03-15T03:25:09.086Z,6.55
2019-03-15T03:25:44.755Z,6.52
2019-03-15T03:26:20.326Z,6.58
2019-03-15T03:26:56.462Z,6.52
2019-03-15T03:27:31.894Z,6.55
2019-03-15T03:28:07.633Z,6.56
2019-03-15T03:28:43.077Z,6.53
2019-03-15T03:29:19.984Z,6.51
2019-03-15T03:29:55.804Z,6.49
2019-03-15T03:30:31.953Z,6.56
2019-03-15T03:31:07.423Z,6.60
2019-03-15T03:31:44.268Z,6.59
2019-03-15T03:32:19.966Z,6.58
2019-03-15T03:32:55.759Z,6.59
2019-03-15T03:33:31.183Z,6.63
2019-03-15T03:34:07.055Z,6.59
2019-03-15T03:34:42.533Z,6.35
2019-03-15T03:35:18.012Z,6.62
2019-03-15T03:35:53.473Z,6.61
2019-03-15T03:36:29.230Z,6.72
2019-03-15T03:37:05.213Z,6.63
2019-03-15T03:37:40.773Z,6.71
2019-03-15T03:38:16.238Z,6.73
2019-03-15T03:38:51.665Z,6.65
2019-03-15T03:39:27.141Z,6.65
2019-03-15T03:40:03.034Z,6.71
2019-03-15T03:40:38.943Z,6.72
2019-03-15T03:41:14.432Z,6.68
2019-03-15T03:41:49.867Z,6.68
2019-03-15T03:42:25.413Z,6.66
2019-03-15T03:43:01.196Z,6.67
2019-03-15T03:43:37.332Z,6.73
2019-03-15T03:44:13.454Z,6.70
2019-03-15T03:44:49.202Z,6.70
2019-03-15T03:45:25.040Z,6.76
2019-03-15T03:46:00.844Z,6.78
2019-03-15T03:46:36.411Z,6.74
2019-03-15T03:47:11.897Z,6.74
2019-03-15T03:47:47.339Z,6.75
2019-03-15T03:48:22.809Z,6.80
2019-03-15T03:48:58.494Z,6.79
2019-03-15T03:49:34.253Z,6.76
2019-03-15T03:50:10.170Z,6.82
2019-03-15T03:50:45.627Z,6.79
2019-03-15T03:51:21.421Z,6.79
2019-03-15T03:51:57.202Z,6.78
2019-03-15T03:52:33.268Z,6.75
2019-03-15T03:53:09.065Z,6.87
2019-03-15T03:53:44.512Z,6.87
2019-03-15T03:54:20.465Z,6.85
2019-03-15T03:54:56.378Z,6.79
2019-03-15T03:55:31.815Z,6.80
2019-03-15T03:56:07.374Z,6.82
2019-03-15T03:56:43.519Z,6.79
2019-03-15T03:57:19.035Z,6.74
2019-03-15T03:57:54.555Z,6.74
2019-03-15T03:58:30.317Z,6.71
2019-03-15T03:59:05.786Z,6.69
2019-03-15T03:59:41.358Z,6.70
2019-03-15T04:00:17.060Z,6.65
2019-03-15T04:00:52.540Z,6.68
2019-03-15T04:01:28.216Z,6.72
2019-03-15T04:02:03.756Z,6.68
2019-03-15T04:02:39.243Z,6.72
2019-03-15T04:03:15.109Z,6.68
2019-03-15T04:03:50.897Z,6.68
2019-03-15T04:04:26.798Z,6.65
2019-03-15T04:05:02.216Z,6.70
2019-03-15T04:05:38.029Z,6.70
2019-03-15T04:06:13.479Z,6.66
2019-03-15T04:06:48.897Z,6.64
2019-03-15T04:07:24.579Z,6.61
2019-03-15T04:08:00.732Z,6.57
2019-03-15T04:08:36.654Z,6.66
2019-03-15T04:09:12.118Z,6.64
2019-03-15T04:09:47.879Z,6.60
2019-03-15T04:10:23.596Z,6.67
2019-03-15T04:10:59.153Z,6.70
2019-03-15T04:11:34.878Z,6.67
2019-03-15T04:12:10.323Z,6.65
2019-03-15T04:12:46.454Z,6.63
2019-03-15T04:13:21.944Z,6.61
2019-03-15T04:13:57.396Z,6.65
2019-03-15T04:14:32.855Z,6.63
2019-03-15T04:15:08.346Z,6.63
2019-03-15T04:15:44.339Z,6.68
2019-03-15T04:16:20.493Z,6.64
2019-03-15T04:16:55.925Z,6.62
2019-03-15T04:17:31.674Z,6.60
2019-03-15T04:18:07.412Z,6.65
2019-03-15T04:18:43.154Z,6.67
2019-03-15T04:19:19.297Z,6.67
2019-03-15T04:19:54.717Z,6.72
2019-03-15T04:20:30.178Z,6.70
2019-03-15T04:21:05.761Z,6.72
2019-03-15T04:21:41.524Z,6.70
2019-03-15T04:22:17.258Z,6.68
2019-03-15T04:22:55.284Z,6.70
2019-03-15T04:23:30.426Z,6.69
2019-03-15T04:24:05.935Z,6.72
2019-03-15T04:24:41.390Z,6.78
2019-03-15T04:25:17.150Z,6.78
2019-03-15T04:25:52.671Z,6.76
2019-03-15T04:26:28.127Z,6.73
2019-03-15T04:27:03.608Z,6.73
2019-03-15T04:27:39.193Z,6.73
2019-03-15T04:28:14.635Z,6.73
2019-03-15T04:28:50.362Z,6.73
2019-03-15T04:29:25.890Z,6.73
2019-03-15T04:30:01.827Z,6.73
2019-03-15T04:30:38.493Z,6.74
2019-03-15T04:31:14.095Z,6.76
2019-03-15T04:31:49.856Z,6.80
2019-03-15T04:32:25.377Z,6.75
2019-03-15T04:33:00.834Z,6.77
2019-03-15T04:33:36.319Z,6.80
2019-03-15T04:34:11.988Z,6.82
2019-03-15T04:34:48.056Z,6.80
2019-03-15T04:35:23.485Z,6.88
2019-03-15T04:35:58.944Z,6.83
2019-03-15T04:36:34.669Z,6.82
2019-03-15T04:37:10.101Z,6.90
2019-03-15T04:37:45.874Z,6.82
2019-03-15T04:38:21.576Z,6.78
2019-03-15T04:38:57.035Z,6.93
2019-03-15T04:39:32.909Z,6.88
2019-03-15T04:40:09.208Z,6.85
2019-03-15T04:40:44.975Z,6.86
2019-03-15T04:41:20.431Z,6.89
2019-03-15T04:41:55.974Z,6.89
2019-03-15T04:42:31.412Z,6.89
2019-03-15T04:43:07.139Z,6.85
2019-03-15T04:43:42.953Z,6.83
2019-03-15T04:44:18.392Z,6.88
2019-03-15T04:44:54.120Z,6.85
2019-03-15T04:45:30.157Z,6.85
2019-03-15T04:46:05.614Z,6.81
2019-03-15T04:46:41.085Z,6.80
2019-03-15T04:47:16.597Z,6.82
2019-03-15T04:47:52.308Z,6.90
2019-03-15T04:48:28.255Z,6.87
2019-03-15T04:49:03.720Z,6.79
2019-03-15T04:49:39.686Z,6.79
2019-03-15T04:50:17.848Z,6.80
2019-03-15T04:50:53.571Z,6.78
2019-03-15T04:51:29.666Z,6.80
2019-03-15T04:52:05.119Z,6.85
2019-03-15T04:52:40.589Z,6.88
2019-03-15T04:53:16.329Z,6.88
2019-03-15T04:53:51.993Z,6.86
2019-03-15T04:54:27.806Z,6.85
2019-03-15T04:55:03.576Z,6.83
2019-03-15T04:55:39.731Z,6.82
2019-03-15T04:56:15.437Z,6.86
2019-03-15T04:56:50.850Z,6.85
2019-03-15T04:57:26.400Z,6.88
2019-03-15T04:58:02.157Z,6.88
2019-03-15T04:58:38.416Z,6.85
2019-03-15T04:59:14.247Z,6.92
2019-03-15T04:59:50.026Z,6.89
2019-03-15T05:00:25.585Z,7.02
2019-03-15T05:01:00.988Z,7.05
2019-03-15T05:01:36.551Z,7.05
2019-03-15T05:02:11.996Z,6.95
2019-03-15T05:02:47.422Z,6.98
2019-03-15T05:03:22.995Z,6.93
2019-03-15T05:03:59.051Z,6.90
2019-03-15T05:04:34.803Z,6.90
2019-03-15T05:05:10.540Z,6.91
2019-03-15T05:05:46.323Z,6.87
2019-03-15T05:06:22.122Z,6.86
2019-03-15T05:06:57.858Z,6.81
2019-03-15T05:07:33.644Z,6.88
2019-03-15T05:08:09.451Z,6.86
2019-03-15T05:08:44.941Z,6.86
2019-03-15T05:09:20.382Z,6.91
2019-03-15T05:09:56.149Z,6.91
2019-03-15T05:10:31.895Z,6.97
2019-03-15T05:11:07.355Z,6.98
2019-03-15T05:11:43.294Z,7.02
2019-03-15T05:12:19.140Z,7.07
2019-03-15T05:12:54.867Z,7.00
2019-03-15T05:13:30.596Z,6.94
2019-03-15T05:14:06.379Z,6.89
2019-03-15T05:14:41.803Z,7.02
2019-03-15T05:15:17.228Z,6.96
2019-03-15T05:15:53.028Z,6.91
2019-03-15T05:16:29.195Z,6.89
2019-03-15T05:17:04.958Z,6.88
2019-03-15T05:17:40.691Z,6.86
2019-03-15T05:18:16.429Z,6.87
2019-03-15T05:18:51.873Z,6.87
2019-03-15T05:19:27.403Z,6.88
2019-03-15T05:20:02.828Z,6.85
2019-03-15T05:20:38.606Z,6.87
2019-03-15T05:21:14.124Z,6.84
2019-03-15T05:21:49.651Z,7.02
2019-03-15T05:22:25.100Z,7.00
2019-03-15T05:23:01.120Z,6.95
2019-03-15T05:23:36.869Z,6.91
2019-03-15T05:24:12.612Z,6.92
2019-03-15T05:24:48.348Z,6.94
2019-03-15T05:25:23.803Z,6.88
2019-03-15T05:25:59.635Z,6.91
2019-03-15T05:26:35.088Z,6.86
2019-03-15T05:27:10.943Z,6.89
2019-03-15T05:27:46.683Z,6.92
2019-03-15T05:28:22.106Z,7.01
2019-03-15T05:28:58.003Z,7.05
2019-03-15T05:29:33.444Z,6.94
2019-03-15T05:30:09.965Z,7.04
2019-03-15T05:30:45.395Z,6.94
2019-03-15T05:31:21.707Z,6.94
2019-03-15T05:31:57.448Z,6.95
2019-03-15T05:32:32.923Z,7.04
2019-03-15T05:33:08.735Z,7.06
2019-03-15T05:33:44.464Z,7.03
2019-03-15T05:34:20.204Z,6.93
2019-03-15T05:34:56.352Z,6.93
2019-03-15T05:35:32.138Z,6.98
2019-03-15T05:36:07.583Z,7.00
2019-03-15T05:36:43.380Z,7.02
2019-03-15T05:37:19.115Z,7.08
2019-03-15T05:37:54.559Z,7.06
2019-03-15T05:38:30.135Z,7.17
2019-03-15T05:39:07.219Z,7.05
2019-03-15T05:39:42.656Z,7.05
2019-03-15T05:40:18.152Z,7.04
2019-03-15T05:40:53.866Z,7.04
2019-03-15T05:41:29.796Z,7.12
2019-03-15T05:42:05.320Z,7.13
2019-03-15T05:42:40.800Z,7.09
2019-03-15T05:43:16.624Z,7.06
2019-03-15T05:43:53.263Z,7.14
2019-03-15T05:44:29.161Z,7.18
2019-03-15T05:45:05.089Z,7.18
2019-03-15T05:45:40.528Z,7.16
2019-03-15T05:46:15.951Z,7.26
2019-03-15T05:46:51.484Z,7.30
2019-03-15T05:47:27.323Z,7.26
2019-03-15T05:48:02.806Z,7.18
2019-03-15T05:48:38.291Z,7.30
2019-03-15T05:49:13.722Z,7.24
2019-03-15T05:49:49.150Z,7.25
2019-03-15T05:50:24.668Z,7.20
2019-03-15T05:51:00.122Z,7.22
2019-03-15T05:51:35.569Z,7.14
2019-03-15T05:52:11.401Z,7.10
2019-03-15T05:52:46.817Z,7.16
2019-03-15T05:53:22.478Z,7.07
2019-03-15T05:53:58.259Z,7.04
2019-03-15T05:54:33.717Z,7.04
2019-03-15T05:55:10.771Z,7.10
2019-03-15T05:55:46.199Z,7.10
2019-03-15T05:56:21.620Z,7.08
2019-03-15T05:56:57.069Z,7.03
2019-03-15T05:57:32.773Z,7.03
2019-03-15T05:58:08.262Z,7.12
2019-03-15T05:58:45.177Z,7.13
2019-03-15T05:59:20.952Z,7.10
2019-03-15T05:59:56.397Z,7.04
2019-03-15T06:00:31.804Z,7.03
2019-03-15T06:01:07.256Z,7.02
2019-03-15T06:01:42.965Z,7.04
2019-03-15T06:02:18.410Z,7.06
2019-03-15T06:02:54.144Z,7.04
2019-03-15T06:03:29.662Z,7.02
2019-03-15T06:04:05.091Z,6.99
2019-03-15T06:04:41.552Z,7.06
2019-03-15T06:05:17.124Z,7.08
2019-03-15T06:05:52.585Z,7.03
2019-03-15T06:06:28.510Z,7.05
2019-03-15T06:07:03.999Z,7.04
2019-03-15T06:07:39.455Z,7.06
2019-03-15T06:08:15.218Z,7.09
2019-03-15T06:08:51.027Z,7.17
2019-03-15T06:09:26.504Z,7.17
2019-03-15T06:10:02.279Z,7.12
2019-03-15T06:10:37.767Z,7.15
2019-03-15T06:11:13.186Z,7.12
2019-03-15T06:11:48.644Z,7.09
2019-03-15T06:12:24.390Z,7.11
2019-03-15T06:12:59.929Z,7.06
2019-03-15T06:13:35.482Z,7.06
2019-03-15T06:14:11.293Z,7.04
2019-03-15T06:14:47.159Z,7.08
2019-03-15T06:15:22.603Z,7.05
2019-03-15T06:15:58.049Z,7.00
2019-03-15T06:16:33.847Z,7.00
2019-03-15T06:17:09.318Z,7.00
2019-03-15T06:17:44.740Z,6.99
2019-03-15T06:18:21.180Z,6.99
2019-03-15T06:18:56.608Z,7.02
2019-03-15T06:19:32.370Z,7.00
2019-03-15T06:20:08.821Z,7.04
2019-03-15T06:20:44.753Z,7.10
2019-03-15T06:21:20.176Z,7.09
2019-03-15T06:21:56.409Z,7.09
2019-03-15T06:22:31.868Z,7.09
2019-03-15T06:23:08.011Z,7.06
2019-03-15T06:23:43.434Z,7.02
2019-03-15T06:24:19.164Z,7.04
2019-03-15T06:24:54.932Z,7.03
2019-03-15T06:25:30.452Z,7.03
2019-03-15T06:26:06.196Z,7.07
2019-03-15T06:26:41.640Z,7.07
2019-03-15T06:27:17.099Z,7.07
2019-03-15T06:27:52.545Z,7.01
2019-03-15T06:28:28.328Z,7.07
2019-03-15T06:29:03.771Z,7.07
2019-03-15T06:29:39.285Z,7.07
2019-03-15T06:30:14.865Z,6.99
2019-03-15T06:30:50.289Z,7.02
2019-03-15T06:31:25.720Z,7.07
2019-03-15T06:32:01.151Z,7.01
2019-03-15T06:32:37.031Z,6.95
2019-03-15T06:33:12.464Z,7.06
2019-03-15T06:33:48.302Z,7.00
2019-03-15T06:34:23.734Z,7.03
2019-03-15T06:34:59.567Z,7.09
2019-03-15T06:35:35.062Z,6.99
2019-03-15T06:36:10.621Z,7.03
2019-03-15T06:36:46.052Z,7.02
2019-03-15T06:37:21.504Z,7.03
2019-03-15T06:37:56.925Z,6.99
2019-03-15T06:38:33.617Z,7.09
2019-03-15T06:39:09.247Z,7.12
2019-03-15T06:39:44.677Z,7.04
2019-03-15T06:40:20.210Z,7.10
2019-03-15T06:40:55.931Z,6.99
2019-03-15T06:41:31.670Z,6.99
2019-03-15T06:42:07.153Z,7.00
2019-03-15T06:42:42.621Z,7.00
2019-03-15T06:43:18.407Z,7.01
2019-03-15T06:43:53.841Z,6.98
2019-03-15T06:44:29.550Z,7.02
2019-03-15T06:45:06.219Z,7.02
2019-03-15T06:45:42.104Z,7.07
2019-03-15T06:46:17.876Z,7.07
2019-03-15T06:46:53.306Z,7.10
2019-03-15T06:47:29.982Z,6.97
2019-03-15T06:48:05.708Z,6.91
2019-03-15T06:48:41.259Z,6.93
2019-03-15T06:49:16.826Z,7.06
2019-03-15T06:49:52.571Z,6.94
2019-03-15T06:50:28.138Z,6.94
2019-03-15T06:51:03.580Z,6.88
2019-03-15T06:51:39.074Z,6.88
2019-03-15T06:52:14.528Z,6.94
2019-03-15T06:52:50.000Z,6.95
2019-03-15T06:53:25.425Z,7.01
2019-03-15T06:54:10.819Z,7.01
2019-03-15T06:54:38.363Z,7.01
2019-03-15T06:55:14.149Z,7.10
2019-03-15T06:55:49.864Z,7.09
2019-03-15T06:56:25.608Z,7.01
2019-03-15T06:57:01.053Z,6.90
2019-03-15T06:57:37.057Z,6.92
2019-03-15T06:58:12.480Z,6.93
2019-03-15T06:58:48.293Z,6.96
2019-03-15T06:59:23.891Z,6.88
2019-03-15T06:59:59.801Z,6.97
2019-03-15T07:00:35.776Z,6.98
2019-03-15T07:01:11.576Z,6.94
2019-03-15T07:01:47.002Z,6.97
2019-03-15T07:02:22.802Z,6.95
2019-03-15T07:02:58.668Z,6.99
2019-03-15T07:03:34.237Z,6.92
2019-03-15T07:04:09.716Z,7.03
2019-03-15T07:04:45.149Z,7.02
2019-03-15T07:05:21.120Z,7.05
2019-03-15T07:05:56.847Z,7.02
2019-03-15T07:06:32.276Z,7.04
2019-03-15T07:07:08.072Z,7.01
2019-03-15T07:07:43.607Z,7.02
2019-03-15T07:08:18.977Z,6.97
2019-03-15T07:08:54.412Z,6.94
2019-03-15T07:09:31.014Z,6.92
2019-03-15T07:10:06.764Z,7.01
2019-03-15T07:10:44.215Z,7.00
2019-03-15T07:11:19.647Z,7.01
2019-03-15T07:12:08.655Z,6.99
2019-03-15T07:12:32.620Z,6.89
2019-03-15T07:13:08.093Z,6.95
2019-03-15T07:13:43.548Z,6.95
2019-03-15T07:14:18.966Z,6.90
2019-03-15T07:14:54.395Z,6.99
2019-03-15T07:15:30.163Z,6.99
2019-03-15T07:16:05.985Z,6.97
2019-03-15T07:16:41.716Z,6.97
2019-03-15T07:17:17.163Z,6.91
2019-03-15T07:17:52.882Z,6.97
2019-03-15T07:18:28.647Z,7.00
2019-03-15T07:19:04.097Z,6.97
2019-03-15T07:19:39.996Z,6.94
2019-03-15T07:20:16.209Z,6.94
2019-03-15T07:20:52.010Z,6.90
2019-03-15T07:21:27.793Z,6.92
2019-03-15T07:22:03.701Z,6.86
2019-03-15T07:22:40.048Z,6.85
2019-03-15T07:23:15.793Z,6.89
2019-03-15T07:23:51.308Z,6.99
2019-03-15T07:24:27.472Z,6.98
2019-03-15T07:25:03.212Z,7.04
2019-03-15T07:25:38.753Z,6.94
2019-03-15T07:26:14.186Z,7.00
2019-03-15T07:26:50.174Z,6.94
2019-03-15T07:27:25.993Z,7.09
2019-03-15T07:28:01.424Z,6.99
2019-03-15T07:28:37.233Z,7.04
2019-03-15T07:29:12.658Z,7.01
2019-03-15T07:29:48.109Z,6.96
2019-03-15T07:30:23.858Z,6.88
2019-03-15T07:30:59.285Z,6.89
2019-03-15T07:31:34.763Z,6.89
2019-03-15T07:32:10.225Z,6.95
2019-03-15T07:32:45.680Z,6.89
2019-03-15T07:33:21.156Z,6.89
2019-03-15T07:33:56.531Z,6.95
2019-03-15T07:34:32.304Z,6.86
2019-03-15T07:35:07.882Z,6.91
2019-03-15T07:35:43.312Z,6.91
2019-03-15T07:36:19.146Z,6.91
2019-03-15T07:36:55.480Z,6.93
2019-03-15T07:37:31.001Z,6.89
2019-03-15T07:38:06.568Z,6.95
2019-03-15T07:38:42.333Z,6.98
2019-03-15T07:39:17.843Z,6.93
2019-03-15T07:39:53.279Z,6.99
2019-03-15T07:40:28.824Z,6.93
2019-03-15T07:41:04.271Z,6.92
2019-03-15T07:41:39.752Z,6.91
2019-03-15T07:42:15.188Z,6.89
2019-03-15T07:42:50.867Z,6.93
2019-03-15T07:43:26.331Z,6.91
2019-03-15T07:44:01.749Z,6.94
2019-03-15T07:44:37.857Z,6.93
2019-03-15T07:45:13.920Z,6.92
2019-03-15T07:45:49.355Z,6.93
2019-03-15T07:46:25.071Z,6.90
2019-03-15T07:47:00.811Z,6.95
2019-03-15T07:47:36.272Z,7.03
2019-03-15T07:48:21.980Z,6.98
2019-03-15T07:48:49.378Z,6.99
2019-03-15T07:49:25.550Z,6.99
2019-03-15T07:50:00.967Z,7.07
2019-03-15T07:50:36.434Z,7.08
2019-03-15T07:51:12.240Z,7.08
2019-03-15T07:51:47.976Z,7.15
2019-03-15T07:52:23.824Z,7.02
2019-03-15T07:52:59.561Z,7.04
2019-03-15T07:53:35.687Z,7.06
2019-03-15T07:54:11.231Z,7.11
2019-03-15T07:54:46.664Z,7.13
2019-03-15T07:55:22.420Z,7.12